createdAt,value
2023-02-25T00:01:21.778Z,22.20
2023-02-25T00:03:52.888Z,18.55
2023-02-25T00:06:19.361Z,19.52
2023-02-25T00:08:46.016Z,19.60
2023-02-25T00:11:14.341Z,16.63
2023-02-25T00:13:41.990Z,17.58
2023-02-25T00:16:09.817Z,15.20
2023-02-25T00:18:36.904Z,22.55
2023-02-25T00:21:09.342Z,17.17
2023-02-25T00:23:36.531Z,21.83
2023-02-25T00:26:08.889Z,12.63
2023-02-25T00:28:36.131Z,16.35
2023-02-25T00:31:12.960Z,14.82
2023-02-25T00:33:42.045Z,17.23
2023-02-25T00:36:10.591Z,14.70
2023-02-25T00:38:37.085Z,15.18
2023-02-25T00:41:15.014Z,17.05
2023-02-25T00:43:44.131Z,15.60
2023-02-25T00:46:11.617Z,16.35
2023-02-25T00:48:38.994Z,20.52
2023-02-25T00:51:11.210Z,13.32
2023-02-25T00:53:38.134Z,19.98
2023-02-25T00:56:06.562Z,12.50
2023-02-25T00:58:36.007Z,15.13
2023-02-25T01:01:04.493Z,16.27
2023-02-25T01:03:30.928Z,18.60
2023-02-25T01:05:57.392Z,10.95
2023-02-25T01:08:23.934Z,19.38
2023-02-25T01:10:50.320Z,17.50
2023-02-25T01:13:16.881Z,18.92
2023-02-25T01:15:43.321Z,15.27
2023-02-25T01:18:09.835Z,14.60
2023-02-25T01:20:40.191Z,16.85
2023-02-25T01:23:07.081Z,17.40
2023-02-25T01:25:33.492Z,11.98
2023-02-25T01:28:00.581Z,12.07
2023-02-25T01:30:27.077Z,16.75
2023-02-25T01:32:53.809Z,16.38
2023-02-25T01:35:20.274Z,13.88
2023-02-25T01:37:47.544Z,14.80
2023-02-25T01:40:17.262Z,14.85
2023-02-25T01:42:45.432Z,16.75
2023-02-25T01:45:17.976Z,15.02
2023-02-25T01:48:09.326Z,15.05
2023-02-25T01:50:43.624Z,17.73
2023-02-25T01:53:13.045Z,12.65
2023-02-25T01:55:41.250Z,21.05
2023-02-25T01:58:09.433Z,11.82
2023-02-25T02:00:38.708Z,12.95
2023-02-25T02:03:06.121Z,19.58
2023-02-25T02:05:46.466Z,15.88
2023-02-25T02:08:13.359Z,12.07
2023-02-25T02:10:39.765Z,22.95
2023-02-25T02:13:06.282Z,17.35
2023-02-25T02:15:38.351Z,18.27
2023-02-25T02:18:07.398Z,11.98
2023-02-25T02:21:04.371Z,15.52
2023-02-25T02:23:53.254Z,13.77
2023-02-25T02:26:40.390Z,13.32
2023-02-25T02:29:18.033Z,24.08
2023-02-25T02:32:03.784Z,16.45
2023-02-25T02:34:41.718Z,15.63
2023-02-25T02:37:27.342Z,16.80
2023-02-25T02:40:15.255Z,15.43
2023-02-25T02:43:03.715Z,19.77
2023-02-25T02:45:43.632Z,16.00
2023-02-25T02:48:17.414Z,14.65
2023-02-25T02:50:50.799Z,15.98
2023-02-25T02:53:27.172Z,14.45
2023-02-25T02:55:58.862Z,17.42
2023-02-25T02:58:32.769Z,20.23
2023-02-25T03:01:07.356Z,16.15
2023-02-25T03:03:39.035Z,17.88
2023-02-25T03:06:10.768Z,15.75
2023-02-25T03:08:46.467Z,14.05
2023-02-25T03:11:14.316Z,17.13
2023-02-25T03:13:41.482Z,17.85
2023-02-25T03:16:12.575Z,21.35
2023-02-25T03:18:46.325Z,23.85
2023-02-25T03:21:17.786Z,20.95
2023-02-25T03:23:46.636Z,19.70
2023-02-25T03:26:30.716Z,12.95
2023-02-25T03:29:01.357Z,17.60
2023-02-25T03:32:10.331Z,17.88
2023-02-25T03:34:50.513Z,14.30
2023-02-25T03:37:28.190Z,12.70
2023-02-25T03:40:00.967Z,16.05
2023-02-25T03:42:34.912Z,15.95
2023-02-25T03:45:05.354Z,12.73
2023-02-25T03:47:35.345Z,27.08
2023-02-25T03:50:20.570Z,17.00
2023-02-25T03:52:52.490Z,17.08
2023-02-25T03:56:00.239Z,14.23
2023-02-25T03:58:26.782Z,12.95
2023-02-25T04:00:57.960Z,16.15
2023-02-25T04:03:24.547Z,14.85
2023-02-25T04:05:51.060Z,14.85
2023-02-25T04:08:17.619Z,16.90
2023-02-25T04:10:46.692Z,14.10
2023-02-25T04:13:16.520Z,14.93
2023-02-25T04:15:43.273Z,15.60
2023-02-25T04:18:09.839Z,13.05
2023-02-25T04:20:36.346Z,16.35
2023-02-25T04:23:02.963Z,15.38
2023-02-25T04:25:29.364Z,12.52
2023-02-25T04:27:55.796Z,12.73
2023-02-25T04:30:22.392Z,10.35
2023-02-25T04:32:49.033Z,20.85
2023-02-25T04:35:15.787Z,17.27
2023-02-25T04:37:43.131Z,19.48
2023-02-25T04:40:15.740Z,13.15
2023-02-25T04:42:42.783Z,12.80
2023-02-25T04:45:10.410Z,14.45
2023-02-25T04:47:37.171Z,14.70
2023-02-25T04:50:04.687Z,18.30
2023-02-25T04:52:31.199Z,17.40
2023-02-25T04:54:57.588Z,15.30
2023-02-25T04:57:24.081Z,13.95
2023-02-25T04:59:50.887Z,16.50
2023-02-25T05:02:17.370Z,17.98
2023-02-25T05:04:44.177Z,16.90
2023-02-25T05:07:11.038Z,25.70
2023-02-25T05:09:37.400Z,20.83
2023-02-25T05:12:04.124Z,15.13
2023-02-25T05:14:32.877Z,17.35
2023-02-25T05:16:59.488Z,19.83
2023-02-25T05:19:25.979Z,15.85
2023-02-25T05:21:53.184Z,14.45
2023-02-25T05:24:20.033Z,17.83
2023-02-25T05:26:46.447Z,13.40
2023-02-25T05:29:12.878Z,17.92
2023-02-25T05:31:40.584Z,17.73
2023-02-25T05:34:07.047Z,17.42
2023-02-25T05:36:33.492Z,15.77
2023-02-25T05:39:03.403Z,13.57
2023-02-25T05:41:30.507Z,17.33
2023-02-25T05:43:58.009Z,14.18
2023-02-25T05:46:25.278Z,12.20
2023-02-25T05:48:52.362Z,15.88
2023-02-25T05:51:22.548Z,12.68
2023-02-25T05:53:50.709Z,24.45
2023-02-25T05:56:22.813Z,12.30
2023-02-25T05:58:49.507Z,17.80
2023-02-25T06:01:19.474Z,16.05
2023-02-25T06:03:47.981Z,15.93
2023-02-25T06:06:16.412Z,15.02
2023-02-25T06:08:44.739Z,18.00
2023-02-25T06:11:17.179Z,18.48
2023-02-25T06:13:43.713Z,20.05
2023-02-25T06:16:10.465Z,13.48
2023-02-25T06:18:37.050Z,13.40
2023-02-25T06:21:09.879Z,13.73
2023-02-25T06:23:38.083Z,11.18
2023-02-25T06:26:06.294Z,19.17
2023-02-25T06:28:32.756Z,13.55
2023-02-25T06:30:59.345Z,11.82
2023-02-25T06:33:25.974Z,13.82
2023-02-25T06:35:53.897Z,14.63
2023-02-25T06:38:21.082Z,12.02
2023-02-25T06:40:49.466Z,16.92
2023-02-25T06:43:16.713Z,17.13
2023-02-25T06:45:43.305Z,19.45
2023-02-25T06:48:10.029Z,13.63
2023-02-25T06:50:39.506Z,12.65
2023-02-25T06:53:06.513Z,16.77
2023-02-25T06:55:33.231Z,10.23
2023-02-25T06:58:00.106Z,16.25
2023-02-25T07:00:26.609Z,13.57
2023-02-25T07:02:53.104Z,12.75
2023-02-25T07:05:19.499Z,16.40
2023-02-25T07:07:45.908Z,16.02
2023-02-25T07:10:12.384Z,16.65
2023-02-25T07:12:38.795Z,26.60
2023-02-25T07:15:05.721Z,18.27
2023-02-25T07:17:32.319Z,16.67
2023-02-25T07:19:58.700Z,15.85
2023-02-25T07:22:25.128Z,18.70
2023-02-25T07:24:52.350Z,15.48
2023-02-25T07:27:18.835Z,17.10
2023-02-25T07:29:45.220Z,18.15
2023-02-25T07:32:12.247Z,15.07
2023-02-25T07:34:39.161Z,14.10
2023-02-25T07:37:05.652Z,16.05
2023-02-25T07:39:32.042Z,12.95
2023-02-25T07:41:58.490Z,19.10
2023-02-25T07:44:26.390Z,19.83
2023-02-25T07:46:52.773Z,19.52
2023-02-25T07:49:19.181Z,19.90
2023-02-25T07:51:45.718Z,15.88
2023-02-25T07:54:12.185Z,20.70
2023-02-25T07:56:38.587Z,16.77
2023-02-25T07:59:05.015Z,25.10
2023-02-25T08:01:34.557Z,14.65
2023-02-25T08:04:05.832Z,16.67
2023-02-25T08:06:35.658Z,15.23
2023-02-25T08:09:02.035Z,19.05
2023-02-25T08:11:28.745Z,15.48
2023-02-25T08:13:55.141Z,13.50
2023-02-25T08:16:22.510Z,19.20
2023-02-25T08:18:49.603Z,22.60
2023-02-25T08:21:18.832Z,17.50
2023-02-25T08:23:45.275Z,13.23
2023-02-25T08:26:11.722Z,16.77
2023-02-25T08:28:39.059Z,18.50
2023-02-25T08:31:08.211Z,23.50
2023-02-25T08:33:35.189Z,18.95
2023-02-25T08:36:12.938Z,14.85
2023-02-25T08:38:39.485Z,16.02
2023-02-25T08:41:06.717Z,15.85
2023-02-25T08:43:33.620Z,16.98
2023-02-25T08:46:01.288Z,17.33
2023-02-25T08:48:29.311Z,18.10
2023-02-25T08:50:55.798Z,18.02
2023-02-25T08:53:23.179Z,14.50
2023-02-25T08:55:50.951Z,18.10
2023-02-25T08:58:17.432Z,20.25
2023-02-25T09:00:43.862Z,15.25
2023-02-25T09:03:10.352Z,15.38
2023-02-25T09:05:37.989Z,15.73
2023-02-25T09:08:04.903Z,14.93
2023-02-25T09:10:44.639Z,18.52
2023-02-25T09:13:17.105Z,13.80
2023-02-25T09:15:43.551Z,12.88
2023-02-25T09:18:11.471Z,24.98
2023-02-25T09:20:38.188Z,11.95
2023-02-25T09:23:04.723Z,19.60
2023-02-25T09:25:31.564Z,17.08
2023-02-25T09:27:58.309Z,16.80
2023-02-25T09:30:24.688Z,14.35
2023-02-25T09:32:51.226Z,14.82
2023-02-25T09:35:17.854Z,10.95
2023-02-25T09:37:44.322Z,17.50
2023-02-25T09:40:18.250Z,12.98
2023-02-25T09:43:16.479Z,13.00
2023-02-25T09:45:47.158Z,11.38
2023-02-25T09:48:33.940Z,10.13
2023-02-25T09:51:22.741Z,14.07
2023-02-25T09:53:54.223Z,8.50
2023-02-25T09:56:24.725Z,10.25
2023-02-25T09:58:58.021Z,11.50
2023-02-25T10:01:36.982Z,8.88
2023-02-25T10:04:09.305Z,8.95
2023-02-25T10:06:37.389Z,8.32
2023-02-25T10:09:30.071Z,11.85
2023-02-25T10:12:30.619Z,6.30
2023-02-25T10:15:08.688Z,11.50
2023-02-25T10:17:56.818Z,10.30
2023-02-25T10:20:43.012Z,9.73
2023-02-25T10:23:48.166Z,8.30
2023-02-25T10:26:22.122Z,8.98
2023-02-25T10:28:53.391Z,8.85
2023-02-25T10:31:21.950Z,11.65
2023-02-25T10:33:51.991Z,7.43
2023-02-25T10:36:25.090Z,12.32
2023-02-25T10:38:53.793Z,7.18
2023-02-25T10:41:23.629Z,7.15
2023-02-25T10:43:51.382Z,7.05
2023-02-25T10:46:57.715Z,11.13
2023-02-25T10:49:26.767Z,5.20
2023-02-25T10:52:03.159Z,6.18
2023-02-25T10:54:35.277Z,8.98
2023-02-25T10:57:08.737Z,7.95
2023-02-25T11:02:27.875Z,6.93
2023-02-25T11:04:55.129Z,9.10
2023-02-25T11:07:41.807Z,8.20
2023-02-25T11:10:10.973Z,11.35
2023-02-25T11:13:05.917Z,5.72
2023-02-25T11:15:45.204Z,5.35
2023-02-25T11:18:41.868Z,5.10
2023-02-25T11:21:16.090Z,6.60
2023-02-25T11:23:42.461Z,7.05
2023-02-25T11:26:15.542Z,9.80
2023-02-25T11:28:48.999Z,8.07
2023-02-25T11:31:17.541Z,7.55
2023-02-25T11:33:50.348Z,5.68
2023-02-25T11:36:23.337Z,4.32
2023-02-25T11:39:02.933Z,9.45
2023-02-25T11:41:32.062Z,5.60
2023-02-25T11:44:10.308Z,5.65
2023-02-25T11:46:37.624Z,6.57
2023-02-25T11:49:10.864Z,7.38
2023-02-25T11:52:00.878Z,5.57
2023-02-25T11:54:39.545Z,7.78
2023-02-25T11:57:28.528Z,6.80
2023-02-25T11:59:54.871Z,6.50
2023-02-25T12:02:45.935Z,6.65
2023-02-25T12:05:47.736Z,3.80
2023-02-25T12:08:40.289Z,10.82
2023-02-25T12:11:34.257Z,6.18
2023-02-25T12:16:45.853Z,7.47
2023-02-25T12:19:15.640Z,9.57
2023-02-25T12:22:12.684Z,7.25
2023-02-25T12:24:45.061Z,7.65
2023-02-25T12:27:47.089Z,5.25
2023-02-25T12:30:37.720Z,7.78
2023-02-25T12:33:25.222Z,10.05
2023-02-25T12:36:19.591Z,6.10
2023-02-25T12:39:23.049Z,6.78
2023-02-25T12:42:13.897Z,4.47
2023-02-25T12:45:17.161Z,8.90
2023-02-25T12:47:49.312Z,4.87
2023-02-25T12:50:34.220Z,5.53
2023-02-25T12:53:15.547Z,8.48
2023-02-25T12:56:19.551Z,6.90
2023-02-25T13:01:50.423Z,3.80
2023-02-25T13:04:29.120Z,6.32
2023-02-25T13:07:24.266Z,8.15
2023-02-25T13:09:56.408Z,6.30
2023-02-25T13:12:41.388Z,5.63
2023-02-25T13:15:41.210Z,5.70
2023-02-25T13:18:21.921Z,9.02
2023-02-25T13:21:11.865Z,4.53
2023-02-25T13:23:57.788Z,8.52
2023-02-25T13:27:08.853Z,6.90
2023-02-25T13:29:48.803Z,4.35
2023-02-25T13:32:30.337Z,5.60
2023-02-25T13:35:08.777Z,7.55
2023-02-25T13:37:54.716Z,7.05
2023-02-25T13:40:35.077Z,6.75
2023-02-25T13:43:27.338Z,4.10
2023-02-25T13:46:02.110Z,5.75
2023-02-25T13:48:43.552Z,5.40
2023-02-25T13:51:34.088Z,5.88
2023-02-25T13:54:24.857Z,7.80
2023-02-25T13:57:34.765Z,6.50
2023-02-25T14:00:09.159Z,5.95
2023-02-25T14:02:55.943Z,4.82
2023-02-25T14:05:51.494Z,4.93
2023-02-25T14:08:33.327Z,4.65
2023-02-25T14:11:07.793Z,2.67
2023-02-25T14:14:12.602Z,5.38
2023-02-25T14:16:53.293Z,5.05
2023-02-25T14:19:22.982Z,2.78
2023-02-25T14:22:07.831Z,3.95
2023-02-25T14:24:49.491Z,6.43
2023-02-25T14:27:25.062Z,3.42
2023-02-25T14:30:13.647Z,5.30
2023-02-25T14:32:48.646Z,4.25
2023-02-25T14:35:41.499Z,2.95
2023-02-25T14:38:21.131Z,3.25
2023-02-25T14:41:07.075Z,3.30
2023-02-25T14:43:35.813Z,2.33
2023-02-25T14:46:33.559Z,3.22
2023-02-25T14:49:22.017Z,3.03
2023-02-25T14:52:19.232Z,3.65
2023-02-25T14:55:06.962Z,6.22
2023-02-25T14:58:15.615Z,4.22
2023-02-25T15:00:51.563Z,3.70
2023-02-25T15:03:25.453Z,5.22
2023-02-25T15:06:26.650Z,3.67
2023-02-25T15:09:11.372Z,5.80
2023-02-25T15:11:58.222Z,4.88
2023-02-25T15:14:40.046Z,6.03
2023-02-25T15:17:26.390Z,4.78
2023-02-25T15:20:25.210Z,4.32
2023-02-25T15:23:15.891Z,3.17
2023-02-25T15:25:47.365Z,3.88
2023-02-25T15:28:29.124Z,6.72
2023-02-25T15:30:58.652Z,4.95
2023-02-25T15:33:37.564Z,3.00
2023-02-25T15:36:16.118Z,6.50
2023-02-25T15:38:51.415Z,4.10
2023-02-25T15:41:42.669Z,3.08
2023-02-25T15:44:12.154Z,4.22
2023-02-25T15:46:41.471Z,6.20
2023-02-25T15:49:10.276Z,6.07
2023-02-25T15:51:42.318Z,3.13
2023-02-25T15:54:10.908Z,2.85
2023-02-25T15:56:51.881Z,2.30
2023-02-25T15:59:43.440Z,6.00
2023-02-25T16:02:33.205Z,6.65
2023-02-25T16:05:16.053Z,4.88
2023-02-25T16:07:45.556Z,3.73
2023-02-25T16:10:15.538Z,5.88
2023-02-25T16:12:43.928Z,6.43
2023-02-25T16:15:30.942Z,4.75
2023-02-25T16:17:59.768Z,5.90
2023-02-25T16:20:33.821Z,5.85
2023-02-25T16:23:00.877Z,4.38
2023-02-25T16:25:42.259Z,4.68
2023-02-25T16:28:38.883Z,7.60
2023-02-25T16:31:24.467Z,3.80
2023-02-25T16:34:09.052Z,5.22
2023-02-25T16:36:47.492Z,5.90
2023-02-25T16:39:21.563Z,3.92
2023-02-25T16:41:48.239Z,4.25
2023-02-25T16:44:30.133Z,5.15
2023-02-25T16:46:56.661Z,4.47
2023-02-25T16:49:31.417Z,5.20
2023-02-25T16:51:58.504Z,5.88
2023-02-25T16:54:30.518Z,4.07
2023-02-25T16:57:02.085Z,4.47
2023-02-25T16:59:34.078Z,5.07
2023-02-25T17:02:22.245Z,5.38
2023-02-25T17:04:54.490Z,8.68
2023-02-25T17:07:30.004Z,4.95
2023-02-25T17:10:04.482Z,6.57
2023-02-25T17:12:36.947Z,4.38
2023-02-25T17:15:09.372Z,6.10
2023-02-25T17:17:39.760Z,4.32
2023-02-25T17:20:15.295Z,3.45
2023-02-25T17:22:44.103Z,3.05
2023-02-25T17:25:17.630Z,6.07
2023-02-25T17:27:47.370Z,3.95
2023-02-25T17:30:41.056Z,4.72
2023-02-25T17:33:21.598Z,3.53
2023-02-25T17:35:51.467Z,3.22
2023-02-25T17:38:21.339Z,4.30
2023-02-25T17:40:48.364Z,4.68
2023-02-25T17:43:16.675Z,6.47
2023-02-25T17:45:49.977Z,5.53
2023-02-25T17:48:23.803Z,5.95
2023-02-25T17:50:56.518Z,6.07
2023-02-25T17:53:48.184Z,8.50
2023-02-25T17:56:24.739Z,7.13
2023-02-25T17:58:57.743Z,3.88
2023-02-25T18:01:31.345Z,6.18
2023-02-25T18:06:42.753Z,5.80
2023-02-25T18:09:35.129Z,5.50
2023-02-25T18:12:03.948Z,6.07
2023-02-25T18:14:30.287Z,8.15
2023-02-25T18:16:57.230Z,5.38
2023-02-25T18:19:23.595Z,5.45
2023-02-25T18:21:50.443Z,6.85
2023-02-25T18:24:28.406Z,4.00
2023-02-25T18:27:15.049Z,5.28
2023-02-25T18:29:41.468Z,4.95
2023-02-25T18:32:07.910Z,6.03
2023-02-25T18:34:34.575Z,6.05
2023-02-25T18:37:01.106Z,5.45
2023-02-25T18:39:27.555Z,8.00
2023-02-25T18:41:53.948Z,5.68
2023-02-25T18:44:20.480Z,5.50
2023-02-25T18:46:47.004Z,7.35
2023-02-25T18:49:13.458Z,6.82
2023-02-25T18:51:39.925Z,10.70
2023-02-25T18:54:06.390Z,6.45
2023-02-25T18:56:32.781Z,6.63
2023-02-25T18:58:59.221Z,6.97
2023-02-25T19:01:31.102Z,9.45
2023-02-25T19:03:59.961Z,5.93
2023-02-25T19:06:28.233Z,7.78
2023-02-25T19:08:54.634Z,6.70
2023-02-25T19:11:24.503Z,5.05
2023-02-25T19:13:51.707Z,7.22
2023-02-25T19:16:19.262Z,5.57
2023-02-25T19:18:49.846Z,8.95
2023-02-25T19:21:20.095Z,6.25
2023-02-25T19:23:50.552Z,4.90
2023-02-25T19:26:17.874Z,6.72
2023-02-25T19:28:44.409Z,5.50
2023-02-25T19:31:12.314Z,5.20
2023-02-25T19:33:39.260Z,6.18
2023-02-25T19:36:06.764Z,8.95
2023-02-25T19:38:33.301Z,5.45
2023-02-25T19:41:02.069Z,8.75
2023-02-25T19:43:30.470Z,4.80
2023-02-25T19:45:56.993Z,8.45
2023-02-25T19:48:24.960Z,7.40
2023-02-25T19:50:51.324Z,6.07
2023-02-25T19:53:17.862Z,8.98
2023-02-25T19:55:44.256Z,9.25
2023-02-25T19:58:10.713Z,6.63
2023-02-25T20:00:38.157Z,10.32
2023-02-25T20:03:05.026Z,5.40
2023-02-25T20:05:34.691Z,8.00
2023-02-25T20:08:01.229Z,8.40
2023-02-25T20:10:27.632Z,5.35
2023-02-25T20:12:54.084Z,9.52
2023-02-25T20:15:20.603Z,7.40
2023-02-25T20:17:47.465Z,10.57
2023-02-25T20:20:15.911Z,9.27
2023-02-25T20:22:42.659Z,8.95
2023-02-25T20:25:10.149Z,11.98
2023-02-25T20:27:39.491Z,12.63
2023-02-25T20:30:06.840Z,12.65
2023-02-25T20:32:33.714Z,6.53
2023-02-25T20:35:00.484Z,11.43
2023-02-25T20:37:31.281Z,9.27
2023-02-25T20:39:59.633Z,8.40
2023-02-25T20:42:29.925Z,8.68
2023-02-25T20:44:57.781Z,7.93
2023-02-25T20:47:31.161Z,7.60
2023-02-25T20:52:26.728Z,11.90
2023-02-25T20:54:53.696Z,8.15
2023-02-25T20:57:22.024Z,6.72
2023-02-25T20:59:48.832Z,6.72
2023-02-25T21:02:16.414Z,7.28
2023-02-25T21:04:43.738Z,8.60
2023-02-25T21:07:10.496Z,7.43
2023-02-25T21:09:37.209Z,7.43
2023-02-25T21:12:04.502Z,8.02
2023-02-25T21:14:31.476Z,12.10
2023-02-25T21:16:57.878Z,8.30
2023-02-25T21:19:26.487Z,11.70
2023-02-25T21:21:52.936Z,4.20
2023-02-25T21:24:19.617Z,5.20
2023-02-25T21:26:46.761Z,6.38
2023-02-25T21:29:14.189Z,7.00
2023-02-25T21:31:41.498Z,6.38
2023-02-25T21:34:09.094Z,9.32
2023-02-25T21:36:36.017Z,9.82
2023-02-25T21:39:03.165Z,7.40
2023-02-25T21:41:29.604Z,12.13
2023-02-25T21:43:57.090Z,5.85
2023-02-25T21:46:23.906Z,5.70
2023-02-25T21:48:53.053Z,6.00
2023-02-25T21:51:22.366Z,9.10
2023-02-25T21:53:52.688Z,7.68
2023-02-25T21:56:19.115Z,9.05
2023-02-25T21:58:46.390Z,7.30
2023-02-25T22:01:21.913Z,6.10
2023-02-25T22:03:48.620Z,6.25
2023-02-25T22:06:15.794Z,5.57
2023-02-25T22:08:44.552Z,6.97
2023-02-25T22:11:13.362Z,3.92
2023-02-25T22:13:39.850Z,5.80
2023-02-25T22:16:06.928Z,6.78
2023-02-25T22:18:35.002Z,4.47
2023-02-25T22:21:14.370Z,6.75
2023-02-25T22:23:43.439Z,5.75
2023-02-25T22:26:13.098Z,8.68
2023-02-25T22:28:40.623Z,8.43
2023-02-25T22:31:10.657Z,6.07
2023-02-25T22:33:37.492Z,8.32
2023-02-25T22:36:05.724Z,12.38
2023-02-25T22:38:35.321Z,8.43
2023-02-25T22:41:02.390Z,11.05
2023-02-25T22:43:30.443Z,9.43
2023-02-25T22:46:07.519Z,8.93
2023-02-25T22:48:36.027Z,12.02
2023-02-25T22:51:03.429Z,6.78
2023-02-25T22:53:29.884Z,7.13
2023-02-25T22:56:01.619Z,3.90
2023-02-25T22:58:29.199Z,5.55
2023-02-25T23:00:55.731Z,10.10
2023-02-25T23:03:22.571Z,6.85
2023-02-25T23:05:49.895Z,12.00
2023-02-25T23:08:16.897Z,8.25
2023-02-25T23:10:44.062Z,5.47
2023-02-25T23:13:11.410Z,7.93
2023-02-25T23:15:41.400Z,7.28
2023-02-25T23:18:09.215Z,10.35
2023-02-25T23:20:38.179Z,7.07
2023-02-25T23:23:07.168Z,9.75
2023-02-25T23:25:37.353Z,8.25
2023-02-25T23:28:05.438Z,8.48
2023-02-25T23:30:31.865Z,10.27
2023-02-25T23:32:59.196Z,10.48
2023-02-25T23:35:25.684Z,12.10
2023-02-25T23:37:52.710Z,11.13
2023-02-25T23:40:19.591Z,14.05
2023-02-25T23:42:46.246Z,11.65
2023-02-25T23:45:14.865Z,9.75
2023-02-25T23:47:42.796Z,14.70
2023-02-25T23:50:15.508Z,16.40
2023-02-25T23:52:46.513Z,10.88
2023-02-25T23:55:14.274Z,12.75
2023-02-25T23:57:40.791Z,7.93
